createdAt,value
2018-11-04T00:00:41.838Z,7.34
2018-11-04T00:01:41.352Z,7.36
2018-11-04T00:02:41.814Z,7.31
2018-11-04T00:03:41.278Z,7.36
2018-11-04T00:04:41.523Z,7.36
2018-11-04T00:05:41.510Z,7.4
2018-11-04T00:06:41.497Z,7.41
2018-11-04T00:07:41.226Z,7.37
2018-11-04T00:08:41.726Z,7.4
2018-11-04T00:09:41.503Z,7.37
2018-11-04T00:10:41.706Z,7.33
2018-11-04T00:11:41.476Z,7.4
2018-11-04T00:12:41.417Z,7.39
2018-11-04T00:13:41.146Z,7.36
2018-11-04T00:14:41.652Z,7.37
2018-11-04T00:15:41.635Z,7.39
2018-11-04T00:16:41.364Z,7.36
2018-11-04T00:17:41.609Z,7.31
2018-11-04T00:18:41.600Z,7.31
2018-11-04T00:19:41.587Z,7.31
2018-11-04T00:20:41.313Z,7.39
2018-11-04T00:21:41.307Z,7.36
2018-11-04T00:22:41.031Z,7.34
2018-11-04T00:23:41.533Z,7.37
2018-11-04T00:24:41.260Z,7.27
2018-11-04T00:25:41.506Z,7.27
2018-11-04T00:26:41.502Z,7.23
2018-11-04T00:27:41.221Z,7.23
2018-11-04T00:28:41.467Z,7.27
2018-11-04T00:29:41.599Z,7.22
2018-11-04T00:30:41.442Z,7.23
2018-11-04T00:31:41.176Z,7.22
2018-11-04T00:32:41.417Z,7.19
2018-11-04T00:33:41.398Z,7.18
2018-11-04T00:34:41.198Z,7.23
2018-11-04T00:35:40.858Z,7.16
2018-11-04T00:36:41.360Z,7.16
2018-11-04T00:37:41.352Z,7.23
2018-11-04T00:38:41.076Z,7.23
2018-11-04T00:39:40.811Z,7.23
2018-11-04T00:40:41.308Z,7.23
2018-11-04T00:41:41.296Z,7.19
2018-11-04T00:42:41.032Z,7.21
2018-11-04T00:43:41.009Z,7.19
2018-11-04T00:44:41.000Z,7.18
2018-11-04T00:45:41.045Z,7.21
2018-11-04T00:46:40.988Z,7.16
2018-11-04T00:47:41.219Z,7.15
2018-11-04T00:48:40.953Z,7.22
2018-11-04T00:49:40.934Z,7.23
2018-11-04T00:50:41.179Z,7.26
2018-11-04T00:51:40.913Z,7.13
2018-11-04T00:52:41.154Z,7.26
2018-11-04T00:53:41.144Z,7.19
2018-11-04T00:54:40.878Z,7.22
2018-11-04T00:55:40.856Z,7.23
2018-11-04T00:56:41.100Z,7.19
2018-11-04T00:57:53.562Z,7.18
2018-11-04T00:58:41.070Z,7.16
2018-11-04T00:59:41.058Z,7.15
2018-11-04T01:00:41.059Z,7.15
2018-11-04T01:01:40.851Z,7.22
2018-11-04T01:02:40.762Z,7.18
2018-11-04T01:03:40.753Z,7.16
2018-11-04T01:04:40.992Z,7.13
2018-11-04T01:05:40.982Z,7.23
2018-11-04T01:06:40.967Z,7.29
2018-11-04T01:07:40.441Z,7.27
2018-11-04T01:08:40.685Z,7.21
2018-11-04T01:09:40.935Z,7.19
2018-11-04T01:10:40.919Z,7.19
2018-11-04T01:11:40.904Z,7.23
2018-11-04T01:12:40.639Z,7.29
2018-11-04T01:13:40.628Z,7.37
2018-11-04T01:14:40.862Z,7.23
2018-11-04T01:15:40.848Z,7.34
2018-11-04T01:16:40.869Z,7.33
2018-11-04T01:17:40.824Z,7.26
2018-11-04T01:18:40.550Z,7.3
2018-11-04T01:19:40.797Z,7.36
2018-11-04T01:20:40.781Z,7.37
2018-11-04T01:21:40.767Z,7.34
2018-11-04T01:22:40.766Z,7.31
2018-11-04T01:23:40.230Z,7.39
2018-11-04T01:24:40.925Z,7.34
2018-11-04T01:25:40.460Z,7.36
2018-11-04T01:26:40.709Z,7.37
2018-11-04T01:27:40.698Z,7.33
2018-11-04T01:28:40.679Z,7.34
2018-11-04T01:29:40.665Z,7.31
2018-11-04T01:30:40.396Z,7.37
2018-11-04T01:31:40.384Z,7.29
2018-11-04T01:32:40.369Z,7.23
2018-11-04T01:33:40.356Z,7.23
2018-11-04T01:34:40.602Z,7.22
2018-11-04T01:35:40.590Z,7.23
2018-11-04T01:36:40.581Z,7.22
2018-11-04T01:37:40.307Z,7.27
2018-11-04T01:38:40.548Z,7.3
2018-11-04T01:39:40.279Z,7.33
2018-11-04T01:40:40.267Z,7.29
2018-11-04T01:41:40.260Z,7.27
2018-11-04T01:42:40.238Z,7.31
2018-11-04T01:43:40.246Z,7.34
2018-11-04T01:44:40.213Z,7.37
2018-11-04T01:45:40.198Z,7.34
2018-11-04T01:46:40.444Z,7.34
2018-11-04T01:47:40.173Z,7.31
2018-11-04T01:48:40.417Z,7.4
2018-11-04T01:49:40.151Z,7.37
2018-11-04T01:50:40.134Z,7.33
2018-11-04T01:51:40.378Z,7.45
2018-11-04T01:52:40.365Z,7.39
2018-11-04T01:53:40.096Z,7.4
2018-11-04T01:54:40.082Z,7.45
2018-11-04T01:55:40.327Z,7.51
2018-11-04T01:56:39.799Z,7.48
2018-11-04T01:57:39.789Z,7.45
2018-11-04T01:58:40.291Z,7.39
2018-11-04T01:59:40.018Z,7.48
2018-11-04T02:00:40.008Z,7.48
2018-11-04T02:01:39.992Z,7.52
2018-11-04T02:02:40.236Z,7.48
2018-11-04T02:03:39.964Z,7.41
2018-11-04T02:04:40.206Z,7.48
2018-11-04T02:05:39.938Z,7.49
2018-11-04T02:06:39.927Z,7.41
2018-11-04T02:07:39.913Z,7.41
2018-11-04T02:08:40.159Z,7.39
2018-11-04T02:09:40.143Z,7.4
2018-11-04T02:10:40.134Z,7.4
2018-11-04T02:11:39.859Z,7.48
2018-11-04T02:12:39.593Z,7.44
2018-11-04T02:13:39.832Z,7.45
2018-11-04T02:14:39.562Z,7.39
2018-11-04T02:15:40.063Z,7.41
2018-11-04T02:16:39.796Z,7.49
2018-11-04T02:17:39.783Z,7.48
2018-11-04T02:18:40.026Z,7.39
2018-11-04T02:19:39.758Z,7.41
2018-11-04T02:20:40.007Z,7.54
2018-11-04T02:21:39.988Z,7.44
2018-11-04T02:22:39.715Z,7.48
2018-11-04T02:23:39.704Z,7.54
2018-11-04T02:24:39.689Z,7.51
2018-11-04T02:25:39.422Z,7.47
2018-11-04T02:26:39.919Z,7.55
2018-11-04T02:27:39.911Z,7.55
2018-11-04T02:28:39.903Z,7.47
2018-11-04T02:29:39.629Z,7.45
2018-11-04T02:30:39.881Z,7.49
2018-11-04T02:31:39.602Z,7.48
2018-11-04T02:32:39.592Z,7.51
2018-11-04T02:33:39.836Z,7.51
2018-11-04T02:34:39.564Z,7.47
2018-11-04T02:35:39.805Z,7.47
2018-11-04T02:36:39.798Z,7.51
2018-11-04T02:37:39.522Z,7.51
2018-11-04T02:38:39.508Z,7.49
2018-11-04T02:39:39.238Z,7.45
2018-11-04T02:40:39.228Z,7.41
2018-11-04T02:41:39.469Z,7.4
2018-11-04T02:42:39.722Z,7.48
2018-11-04T02:43:39.449Z,7.52
2018-11-04T02:44:39.695Z,7.45
2018-11-04T02:45:39.675Z,7.4
2018-11-04T02:46:39.738Z,7.49
2018-11-04T02:47:39.394Z,7.48
2018-11-04T02:48:39.384Z,7.49
2018-11-04T02:49:39.634Z,7.51
2018-11-04T02:50:39.617Z,7.4
2018-11-04T02:51:39.610Z,7.45
2018-11-04T02:52:39.334Z,7.47
2018-11-04T02:53:39.575Z,7.51
2018-11-04T02:54:39.568Z,7.56
2018-11-04T02:55:39.548Z,7.47
2018-11-04T02:56:39.281Z,7.54
2018-11-04T02:57:39.273Z,7.48
2018-11-04T02:58:39.572Z,7.45
2018-11-04T02:59:39.235Z,7.47
2018-11-04T03:00:39.484Z,7.48
2018-11-04T03:01:38.984Z,7.48
2018-11-04T03:02:39.202Z,7.49
2018-11-04T03:03:39.447Z,7.49
2018-11-04T03:04:39.441Z,7.49
2018-11-04T03:05:39.425Z,7.52
2018-11-04T03:06:39.407Z,7.63
2018-11-04T03:07:39.137Z,7.64
2018-11-04T03:08:39.125Z,7.64
2018-11-04T03:09:39.368Z,7.68
2018-11-04T03:10:39.099Z,7.63
2018-11-04T03:11:39.086Z,7.63
2018-11-04T03:12:39.071Z,7.61
2018-11-04T03:13:39.069Z,7.61
2018-11-04T03:14:39.046Z,7.63
2018-11-04T03:15:39.291Z,7.59
2018-11-04T03:16:39.283Z,7.78
2018-11-04T03:17:39.016Z,7.63
2018-11-04T03:18:39.252Z,7.7
2018-11-04T03:19:38.982Z,7.78
2018-11-04T03:20:39.228Z,7.71
2018-11-04T03:21:38.955Z,7.73
2018-11-04T03:22:38.946Z,7.74
2018-11-04T03:23:38.928Z,7.78
2018-11-04T03:24:38.664Z,7.74
2018-11-04T03:25:39.167Z,7.8
2018-11-04T03:26:38.895Z,7.8
2018-11-04T03:27:38.620Z,7.75
2018-11-04T03:28:38.877Z,7.78
2018-11-04T03:29:38.857Z,7.92
2018-11-04T03:30:39.105Z,7.8
2018-11-04T03:31:38.838Z,7.78
2018-11-04T03:32:39.081Z,7.86
2018-11-04T03:33:39.061Z,7.82
2018-11-04T03:34:39.058Z,7.83
2018-11-04T03:35:39.030Z,7.86
2018-11-04T03:36:38.507Z,7.83
2018-11-04T03:37:38.750Z,7.83
2018-11-04T03:38:38.742Z,7.89
2018-11-04T03:39:38.470Z,7.89
2018-11-04T03:40:38.712Z,7.85
2018-11-04T03:41:38.702Z,7.89
2018-11-04T03:42:38.946Z,7.95
2018-11-04T03:43:38.417Z,7.93
2018-11-04T03:44:38.663Z,7.96
2018-11-04T03:45:38.391Z,7.93
2018-11-04T03:46:38.380Z,8.04
2018-11-04T03:47:38.624Z,7.98
2018-11-04T03:48:38.871Z,8.06
2018-11-04T03:49:38.855Z,7.96
2018-11-04T03:50:38.846Z,7.98
2018-11-04T03:51:38.315Z,8.03
2018-11-04T03:52:38.814Z,7.99
2018-11-04T03:53:38.810Z,7.93
2018-11-04T03:54:38.808Z,7.93
2018-11-04T03:55:38.810Z,7.93
2018-11-04T03:56:38.514Z,7.86
2018-11-04T03:57:38.496Z,7.91
2018-11-04T03:58:38.484Z,7.86
2018-11-04T03:59:38.734Z,7.82
2018-11-04T04:00:38.724Z,7.83
2018-11-04T04:01:38.707Z,7.77
2018-11-04T04:02:38.435Z,7.85
2018-11-04T04:03:38.437Z,7.83
2018-11-04T04:04:38.419Z,7.8
2018-11-04T04:05:38.397Z,7.8
2018-11-04T04:06:38.384Z,7.78
2018-11-04T04:07:38.375Z,7.85
2018-11-04T04:08:38.361Z,7.82
2018-11-04T04:09:38.351Z,7.83
2018-11-04T04:10:38.590Z,7.85
2018-11-04T04:11:38.322Z,7.82
2018-11-04T04:12:38.308Z,7.78
2018-11-04T04:13:38.297Z,7.82
2018-11-04T04:14:38.541Z,7.77
2018-11-04T04:15:38.276Z,7.77
2018-11-04T04:16:37.998Z,7.85
2018-11-04T04:17:38.245Z,7.85
2018-11-04T04:18:38.510Z,7.89
2018-11-04T04:19:38.219Z,7.86
2018-11-04T04:20:38.466Z,7.89
2018-11-04T04:21:38.450Z,7.91
2018-11-04T04:22:38.181Z,7.92
2018-11-04T04:23:38.218Z,7.99
2018-11-04T04:24:38.411Z,7.98
2018-11-04T04:25:38.141Z,7.92
2018-11-04T04:26:38.391Z,7.92
2018-11-04T04:27:38.374Z,7.96
2018-11-04T04:28:38.360Z,7.92
2018-11-04T04:29:38.090Z,7.93
2018-11-04T04:30:38.080Z,7.96
2018-11-04T04:31:38.329Z,8.01
2018-11-04T04:32:38.319Z,8.03
2018-11-04T04:33:38.298Z,8.03
2018-11-04T04:34:38.318Z,7.99
2018-11-04T04:35:38.017Z,8.09
2018-11-04T04:36:38.006Z,7.96
2018-11-04T04:37:37.996Z,7.98
2018-11-04T04:38:37.979Z,7.96
2018-11-04T04:39:37.963Z,8.09
2018-11-04T04:40:37.701Z,7.95
2018-11-04T04:41:38.198Z,7.93
2018-11-04T04:42:37.930Z,8.03
2018-11-04T04:43:38.175Z,7.98
2018-11-04T04:44:37.901Z,8.07
2018-11-04T04:45:38.153Z,8.06
2018-11-04T04:46:38.133Z,8.06
2018-11-04T04:47:37.610Z,7.96
2018-11-04T04:48:37.856Z,8.04
2018-11-04T04:49:37.841Z,8.11
2018-11-04T04:50:38.089Z,8.1
2018-11-04T04:51:38.089Z,8.01
2018-11-04T04:52:38.063Z,8.06
2018-11-04T04:53:37.794Z,8.06
2018-11-04T04:54:37.778Z,7.99
2018-11-04T04:55:38.041Z,8.03
2018-11-04T04:56:37.497Z,8.07
2018-11-04T04:57:37.749Z,8.09
2018-11-04T04:58:37.730Z,8.11
2018-11-04T04:59:37.984Z,8.06
2018-11-04T05:00:37.963Z,8.06
2018-11-04T05:01:37.953Z,8.06
2018-11-04T05:02:37.676Z,8.09
2018-11-04T05:03:37.412Z,8.11
2018-11-04T05:04:37.656Z,8.11
2018-11-04T05:05:37.902Z,8.14
2018-11-04T05:06:37.633Z,8.13
2018-11-04T05:07:37.622Z,8.13
2018-11-04T05:08:37.607Z,8.09
2018-11-04T05:09:37.598Z,8.19
2018-11-04T05:10:37.839Z,8.09
2018-11-04T05:11:37.839Z,8.13
2018-11-04T05:12:37.826Z,8.1
2018-11-04T05:13:37.804Z,8.14
2018-11-04T05:14:37.541Z,8.16
2018-11-04T05:15:37.520Z,8.09
2018-11-04T05:16:37.779Z,8.09
2018-11-04T05:17:37.811Z,8.16
2018-11-04T05:18:37.481Z,8.04
2018-11-04T05:19:37.741Z,8.13
2018-11-04T05:20:37.200Z,8.13
2018-11-04T05:21:37.185Z,8.03
2018-11-04T05:22:37.688Z,8.17
2018-11-04T05:23:37.677Z,8.11
2018-11-04T05:24:37.665Z,8.1
2018-11-04T05:25:37.141Z,8.11
2018-11-04T05:26:37.141Z,8.14
2018-11-04T05:27:37.637Z,8.1
2018-11-04T05:28:37.613Z,8.13
2018-11-04T05:29:37.090Z,8.13
2018-11-04T05:30:37.331Z,8.19
2018-11-04T05:31:37.320Z,8.14
2018-11-04T05:32:37.586Z,8.14
2018-11-04T05:33:37.297Z,8.09
2018-11-04T05:34:37.288Z,8.09
2018-11-04T05:35:37.535Z,8.13
2018-11-04T05:36:37.514Z,8.16
2018-11-04T05:37:37.257Z,8.13
2018-11-04T05:38:37.244Z,8.1
2018-11-04T05:39:37.222Z,8.06
2018-11-04T05:40:37.466Z,8.21
2018-11-04T05:41:37.195Z,8.09
2018-11-04T05:42:37.184Z,8.13
2018-11-04T05:43:37.170Z,8.19
2018-11-04T05:44:37.156Z,8.06
2018-11-04T05:45:37.144Z,8.24
2018-11-04T05:46:37.135Z,8.19
2018-11-04T05:47:37.381Z,8.22
2018-11-04T05:48:37.365Z,8.16
2018-11-04T05:49:37.102Z,8.1
2018-11-04T05:50:36.829Z,8.22
2018-11-04T05:51:37.339Z,8.19
2018-11-04T05:52:37.321Z,8.14
2018-11-04T05:53:37.051Z,8.17
2018-11-04T05:54:37.040Z,8.11
2018-11-04T05:55:37.293Z,8.21
2018-11-04T05:56:37.010Z,8.21
2018-11-04T05:57:36.741Z,8.17
2018-11-04T05:58:37.248Z,8.24
2018-11-04T05:59:37.230Z,8.22
2018-11-04T06:00:37.238Z,8.14
2018-11-04T06:01:37.240Z,8.19
2018-11-04T06:02:36.940Z,8.19
2018-11-04T06:03:37.181Z,8.22
2018-11-04T06:04:36.913Z,8.17
2018-11-04T06:05:36.643Z,8.21
2018-11-04T06:06:37.147Z,8.32
2018-11-04T06:07:37.136Z,8.24
2018-11-04T06:08:36.609Z,8.24
2018-11-04T06:09:36.594Z,8.22
2018-11-04T06:10:36.582Z,8.25
2018-11-04T06:11:36.830Z,8.24
2018-11-04T06:12:37.081Z,8.19
2018-11-04T06:13:37.062Z,8.29
2018-11-04T06:14:36.794Z,8.22
2018-11-04T06:15:36.520Z,8.28
2018-11-04T06:16:36.767Z,8.24
2018-11-04T06:17:37.021Z,8.16
2018-11-04T06:18:36.743Z,8.21
2018-11-04T06:19:37.010Z,8.22
2018-11-04T06:20:36.719Z,8.17
2018-11-04T06:21:36.447Z,8.26
2018-11-04T06:22:36.691Z,8.19
2018-11-04T06:23:36.943Z,8.22
2018-11-04T06:24:36.671Z,8.22
2018-11-04T06:25:36.943Z,8.28
2018-11-04T06:26:36.909Z,8.36
2018-11-04T06:27:36.888Z,8.28
2018-11-04T06:28:36.619Z,8.32
2018-11-04T06:29:36.606Z,8.4
2018-11-04T06:30:36.860Z,8.43
2018-11-04T06:31:36.844Z,8.36
2018-11-04T06:32:36.831Z,8.4
2018-11-04T06:33:36.813Z,8.28
2018-11-04T06:34:36.661Z,8.39
2018-11-04T06:35:36.534Z,8.39
2018-11-04T06:36:36.777Z,8.36
2018-11-04T06:37:36.765Z,8.31
2018-11-04T06:38:36.495Z,8.36
2018-11-04T06:39:36.226Z,8.5
2018-11-04T06:40:36.727Z,8.43
2018-11-04T06:41:36.730Z,8.36
2018-11-04T06:42:36.701Z,8.4
2018-11-04T06:43:36.437Z,8.4
2018-11-04T06:44:36.680Z,8.43
2018-11-04T06:45:36.411Z,8.4
2018-11-04T06:46:36.399Z,8.4
2018-11-04T06:47:36.600Z,8.43
2018-11-04T06:48:36.629Z,8.43
2018-11-04T06:49:36.617Z,8.39
2018-11-04T06:50:36.610Z,8.49
2018-11-04T06:51:36.336Z,8.42
2018-11-04T06:52:36.322Z,8.47
2018-11-04T06:53:36.310Z,8.47
2018-11-04T06:54:36.064Z,8.36
2018-11-04T06:55:36.545Z,8.4
2018-11-04T06:56:36.274Z,8.4
2018-11-04T06:57:36.261Z,8.43
2018-11-04T06:58:36.513Z,8.39
2018-11-04T06:59:36.494Z,8.5
2018-11-04T07:00:36.485Z,8.42
2018-11-04T07:01:36.218Z,8.47
2018-11-04T07:02:36.460Z,8.44
2018-11-04T07:03:36.194Z,8.5
2018-11-04T07:04:36.186Z,8.52
2018-11-04T07:05:36.420Z,8.5
2018-11-04T07:06:36.414Z,8.49
2018-11-04T07:07:36.402Z,8.53
2018-11-04T07:08:36.129Z,8.46
2018-11-04T07:09:36.125Z,8.46
2018-11-04T07:10:36.374Z,8.5
2018-11-04T07:11:36.353Z,8.53
2018-11-04T07:12:36.341Z,8.58
2018-11-04T07:13:36.119Z,8.54
2018-11-04T07:14:36.059Z,8.61
2018-11-04T07:15:36.301Z,8.64
2018-11-04T07:16:36.295Z,8.6
2018-11-04T07:17:36.278Z,8.69
2018-11-04T07:18:36.011Z,8.61
2018-11-04T07:19:36.252Z,8.69
2018-11-04T07:20:35.982Z,8.69
2018-11-04T07:21:36.232Z,8.71
2018-11-04T07:22:35.967Z,8.74
2018-11-04T07:23:36.203Z,8.82
2018-11-04T07:24:35.935Z,8.87
2018-11-04T07:25:36.425Z,8.86
2018-11-04T07:26:35.912Z,8.83
2018-11-04T07:27:36.160Z,8.97
2018-11-04T07:28:35.950Z,8.97
2018-11-04T07:29:35.878Z,8.94
2018-11-04T07:30:36.122Z,9
2018-11-04T07:31:36.112Z,8.92
2018-11-04T07:32:35.581Z,9.03
2018-11-04T07:33:35.831Z,8.87
2018-11-04T07:34:36.083Z,9.01
2018-11-04T07:35:35.803Z,8.97
2018-11-04T07:36:36.049Z,8.98
2018-11-04T07:37:35.791Z,9
2018-11-04T07:38:35.772Z,9.08
2018-11-04T07:39:36.020Z,9.03
2018-11-04T07:40:35.745Z,8.97
2018-11-04T07:41:35.477Z,9.01
2018-11-04T07:42:35.722Z,9.03
2018-11-04T07:43:35.968Z,9.04
2018-11-04T07:44:35.956Z,9.05
2018-11-04T07:45:35.687Z,9.08
2018-11-04T07:46:35.676Z,9.14
2018-11-04T07:47:35.933Z,9.03
2018-11-04T07:48:35.909Z,9.01
2018-11-04T07:49:35.901Z,9.17
2018-11-04T07:50:35.447Z,9.16
2018-11-04T07:51:35.784Z,9.17
2018-11-04T07:52:35.867Z,9.23
2018-11-04T07:53:35.594Z,9.19
2018-11-04T07:54:35.324Z,9.24
2018-11-04T07:55:35.827Z,9.27
2018-11-04T07:56:35.557Z,9.19
2018-11-04T07:57:35.548Z,9.3
2018-11-04T07:58:35.536Z,9.32
2018-11-04T07:59:35.780Z,9.29
2018-11-04T08:00:35.776Z,9.34
2018-11-04T08:01:35.508Z,9.32
2018-11-04T08:02:35.489Z,9.34
2018-11-04T08:03:36.001Z,9.32
2018-11-04T08:04:35.210Z,9.27
2018-11-04T08:05:35.455Z,9.37
2018-11-04T08:06:35.443Z,9.44
2018-11-04T08:07:35.427Z,9.48
2018-11-04T08:08:35.420Z,9.48
2018-11-04T08:09:35.673Z,9.44
2018-11-04T08:10:35.661Z,9.52
2018-11-04T08:11:35.134Z,9.5
2018-11-04T08:12:35.121Z,9.6
2018-11-04T08:13:35.670Z,9.71
2018-11-04T08:14:35.607Z,9.72
2018-11-04T08:15:35.598Z,9.81
2018-11-04T08:16:35.332Z,9.96
2018-11-04T08:17:35.316Z,9.93
2018-11-04T08:18:35.565Z,10
2018-11-04T08:19:35.567Z,10.05
2018-11-04T08:20:35.286Z,10.15
2018-11-04T08:21:35.384Z,10.29
2018-11-04T08:22:35.002Z,10.35
2018-11-04T08:23:34.990Z,10.31
2018-11-04T08:24:35.499Z,10.41
2018-11-04T08:25:35.226Z,10.46
2018-11-04T08:26:35.478Z,10.58
2018-11-04T08:27:35.664Z,10.67
2018-11-04T08:28:35.203Z,10.7
2018-11-04T08:29:35.442Z,10.79
2018-11-04T08:30:35.177Z,10.8
2018-11-04T08:31:35.163Z,10.83
2018-11-04T08:32:34.903Z,10.91
2018-11-04T08:33:35.152Z,10.88
2018-11-04T08:34:35.394Z,10.92
2018-11-04T08:35:35.119Z,11.06
2018-11-04T08:36:35.125Z,11.05
2018-11-04T08:37:35.359Z,11.13
2018-11-04T08:38:35.350Z,11.2
2018-11-04T08:39:35.087Z,11.12
2018-11-04T08:40:35.848Z,11.15
2018-11-04T08:41:35.320Z,11.12
2018-11-04T08:42:35.308Z,11.12
2018-11-04T08:43:35.300Z,11.13
2018-11-04T08:44:35.293Z,11.1
2018-11-04T08:45:35.132Z,11.15
2018-11-04T08:46:35.263Z,11.1
2018-11-04T08:47:35.297Z,11.09
2018-11-04T08:48:34.730Z,11.09
2018-11-04T08:49:35.299Z,11.15
2018-11-04T08:50:34.966Z,11.06
2018-11-04T08:51:34.814Z,11.1
2018-11-04T08:52:35.168Z,11.05
2018-11-04T08:53:35.337Z,11.12
2018-11-04T08:54:34.926Z,11.12
2018-11-04T08:55:34.921Z,11.13
2018-11-04T08:56:34.909Z,11.13
2018-11-04T08:57:35.160Z,11.3
2018-11-04T08:58:34.893Z,11.27
2018-11-04T08:59:34.875Z,11.41
2018-11-04T09:00:34.870Z,11.39
2018-11-04T09:01:35.119Z,11.38
2018-11-04T09:02:34.845Z,11.42
2018-11-04T09:03:34.836Z,11.35
2018-11-04T09:04:34.824Z,11.38
2018-11-04T09:05:34.820Z,11.42
2018-11-04T09:06:35.085Z,11.43
2018-11-04T09:07:34.800Z,11.39
2018-11-04T09:08:35.051Z,11.38
2018-11-04T09:09:34.520Z,11.51
2018-11-04T09:10:34.767Z,11.49
2018-11-04T09:11:34.756Z,11.35
2018-11-04T09:12:35.009Z,11.57
2018-11-04T09:13:34.999Z,11.46
2018-11-04T09:14:34.993Z,11.53
2018-11-04T09:15:34.716Z,11.64
2018-11-04T09:16:34.980Z,11.64
2018-11-04T09:17:34.962Z,11.7
2018-11-04T09:18:34.692Z,11.66
2018-11-04T09:19:34.680Z,11.76
2018-11-04T09:20:34.930Z,11.78
2018-11-04T09:21:35.089Z,11.84
2018-11-04T09:22:34.489Z,11.89
2018-11-04T09:23:35.097Z,11.85
2018-11-04T09:24:34.888Z,11.94
2018-11-04T09:25:34.882Z,12.05
2018-11-04T09:26:34.871Z,11.91
2018-11-04T09:27:34.863Z,11.91
2018-11-04T09:28:34.856Z,11.89
2018-11-04T09:29:34.590Z,11.95
2018-11-04T09:30:34.577Z,11.97
2018-11-04T09:31:34.828Z,11.91
2018-11-04T09:32:34.826Z,11.89
2018-11-04T09:33:34.546Z,11.97
2018-11-04T09:34:34.292Z,12.03
2018-11-04T09:35:35.741Z,12.03
2018-11-04T09:36:35.317Z,11.94
2018-11-04T09:37:34.512Z,12
2018-11-04T09:38:34.244Z,12.01
2018-11-04T09:39:34.492Z,12.05
2018-11-04T09:40:34.224Z,12.03
2018-11-04T09:41:34.731Z,12.01
2018-11-04T09:42:34.721Z,12.05
2018-11-04T09:43:34.201Z,12.04
2018-11-04T09:44:34.443Z,12.08
2018-11-04T09:45:34.696Z,12.08
2018-11-04T09:46:34.686Z,12.13
2018-11-04T09:47:34.421Z,12.18
2018-11-04T09:48:34.413Z,12.2
2018-11-04T09:49:34.659Z,12.36
2018-11-04T09:50:34.647Z,12.25
2018-11-04T09:51:34.383Z,12.31
2018-11-04T09:52:34.116Z,12.45
2018-11-04T09:53:34.630Z,12.47
2018-11-04T09:54:34.359Z,12.55
2018-11-04T09:55:34.345Z,12.53
2018-11-04T09:56:34.779Z,12.52
2018-11-04T09:57:34.587Z,12.52
2018-11-04T09:58:34.577Z,12.51
2018-11-04T09:59:34.574Z,12.65
2018-11-04T10:00:34.298Z,12.55
2018-11-04T10:01:34.032Z,12.63
2018-11-04T10:02:34.282Z,12.66
2018-11-04T10:03:34.017Z,12.73
2018-11-04T10:04:34.270Z,12.76
2018-11-04T10:05:34.515Z,12.76
2018-11-04T10:06:34.505Z,12.78
2018-11-04T10:07:33.982Z,12.78
2018-11-04T10:08:34.484Z,12.78
2018-11-04T10:09:34.479Z,12.76
2018-11-04T10:10:34.213Z,12.8
2018-11-04T10:11:34.465Z,12.76
2018-11-04T10:12:34.466Z,12.74
2018-11-04T10:13:34.508Z,12.73
2018-11-04T10:14:34.439Z,12.8
2018-11-04T10:15:34.422Z,12.74
2018-11-04T10:16:34.424Z,12.74
2018-11-04T10:17:34.408Z,12.78
2018-11-04T10:18:34.401Z,12.7
2018-11-04T10:19:34.963Z,12.66
2018-11-04T10:20:36.291Z,12.61
2018-11-04T10:21:34.118Z,12.63
2018-11-04T10:22:34.365Z,12.59
2018-11-04T10:23:34.100Z,12.66
2018-11-04T10:24:34.348Z,12.7
2018-11-04T10:25:34.082Z,12.63
2018-11-04T10:26:34.075Z,12.59
2018-11-04T10:27:34.069Z,12.59
2018-11-04T10:28:34.315Z,12.61
2018-11-04T10:29:34.050Z,12.63
2018-11-04T10:30:34.742Z,12.63
2018-11-04T10:31:34.034Z,12.59
2018-11-04T10:32:34.030Z,12.74
2018-11-04T10:33:34.281Z,12.73
2018-11-04T10:34:34.005Z,12.71
2018-11-04T10:35:34.255Z,12.8
2018-11-04T10:36:34.254Z,12.8
2018-11-04T10:37:33.725Z,12.86
2018-11-04T10:38:34.232Z,12.88
2018-11-04T10:39:34.230Z,12.86
2018-11-04T10:40:33.702Z,12.88
2018-11-04T10:41:33.948Z,12.98
2018-11-04T10:42:34.308Z,13.02
2018-11-04T10:43:33.935Z,13.06
2018-11-04T10:44:33.925Z,13.1
2018-11-04T10:45:34.171Z,13.25
2018-11-04T10:46:34.160Z,13.17
2018-11-04T10:47:33.899Z,13.27
2018-11-04T10:48:33.633Z,13.21
2018-11-04T10:49:34.654Z,13.2
2018-11-04T10:50:33.875Z,13.21
2018-11-04T10:51:33.608Z,13.24
2018-11-04T10:52:33.859Z,13.16
2018-11-04T10:53:33.851Z,13.21
2018-11-04T10:54:33.841Z,13.11
2018-11-04T10:55:33.941Z,13.1
2018-11-04T10:56:34.085Z,12.92
2018-11-04T10:57:33.560Z,12.88
2018-11-04T10:58:34.068Z,12.86
2018-11-04T10:59:33.799Z,12.88
2018-11-04T11:00:33.538Z,12.84
2018-11-04T11:01:33.529Z,12.92
2018-11-04T11:02:33.516Z,12.96
2018-11-04T11:03:34.032Z,12.96
2018-11-04T11:04:33.589Z,13.01
2018-11-04T11:05:34.017Z,12.95
2018-11-04T11:06:33.748Z,12.99
2018-11-04T11:07:33.738Z,13.11
2018-11-04T11:08:33.989Z,13.11
2018-11-04T11:09:33.982Z,13.21
2018-11-04T11:10:33.967Z,13.17
2018-11-04T11:11:33.964Z,13.32
2018-11-04T11:12:33.698Z,13.24
2018-11-04T11:13:33.712Z,13.32
2018-11-04T11:14:33.677Z,13.29
2018-11-04T11:15:33.413Z,13.31
2018-11-04T11:16:33.663Z,13.25
2018-11-04T11:17:33.928Z,13.25
2018-11-04T11:18:33.645Z,13.42
2018-11-04T11:19:33.639Z,13.47
2018-11-04T11:20:33.886Z,13.47
2018-11-04T11:21:33.939Z,13.44
2018-11-04T11:22:33.844Z,13.42
2018-11-04T11:23:33.869Z,13.47
2018-11-04T11:24:33.864Z,13.53
2018-11-04T11:25:33.859Z,13.48
2018-11-04T11:26:33.325Z,13.45
2018-11-04T11:27:33.574Z,13.48
2018-11-04T11:28:33.565Z,13.55
2018-11-04T11:29:33.574Z,13.47
2018-11-04T11:30:33.812Z,13.51
2018-11-04T11:31:33.541Z,13.4
2018-11-04T11:32:33.533Z,13.53
2018-11-04T11:33:33.785Z,13.48
2018-11-04T11:34:33.520Z,13.51
2018-11-04T11:35:33.764Z,13.53
2018-11-04T11:36:33.497Z,13.47
2018-11-04T11:37:34.064Z,13.51
2018-11-04T11:38:33.746Z,13.48
2018-11-04T11:39:33.743Z,13.44
2018-11-04T11:40:33.728Z,13.44
2018-11-04T11:41:33.722Z,13.48
2018-11-04T11:42:33.714Z,13.32
2018-11-04T11:43:33.204Z,13.35
2018-11-04T11:44:33.456Z,13.35
2018-11-04T11:45:33.692Z,13.32
2018-11-04T11:46:33.423Z,13.21
2018-11-04T11:47:33.672Z,13.17
2018-11-04T11:48:33.663Z,13.25
2018-11-04T11:49:33.398Z,13.21
2018-11-04T11:50:33.388Z,13.2
2018-11-04T11:51:33.411Z,13.17
2018-11-04T11:52:33.184Z,13.13
2018-11-04T11:53:33.368Z,13.11
2018-11-04T11:54:33.614Z,13.14
2018-11-04T11:55:33.609Z,13.11
2018-11-04T11:56:33.608Z,13.11
2018-11-04T11:57:33.587Z,13.11
2018-11-04T11:58:33.326Z,13.16
2018-11-04T11:59:33.061Z,13.11
2018-11-04T12:00:33.316Z,13.11
2018-11-04T12:01:33.304Z,13.14
2018-11-04T12:02:33.294Z,13.19
2018-11-04T12:03:33.284Z,13.09
2018-11-04T12:04:33.535Z,13.09
2018-11-04T12:05:33.268Z,13.11
2018-11-04T12:06:33.521Z,13.1
2018-11-04T12:07:33.249Z,13.09
2018-11-04T12:08:33.248Z,13.06
2018-11-04T12:09:33.492Z,13.11
2018-11-04T12:10:33.227Z,13.06
2018-11-04T12:11:33.218Z,13.02
2018-11-04T12:12:33.210Z,12.96
2018-11-04T12:13:33.461Z,12.95
2018-11-04T12:14:33.454Z,13.02
2018-11-04T12:15:33.444Z,12.99
2018-11-04T12:16:33.179Z,12.98
2018-11-04T12:17:33.209Z,12.96
2018-11-04T12:18:33.429Z,12.99
2018-11-04T12:19:33.416Z,12.94
2018-11-04T12:20:33.152Z,12.88
2018-11-04T12:21:33.398Z,12.88
2018-11-04T12:22:33.384Z,12.89
2018-11-04T12:23:32.875Z,12.84
2018-11-04T12:24:33.111Z,12.76
2018-11-04T12:25:33.103Z,12.78
2018-11-04T12:26:33.101Z,12.77
2018-11-04T12:27:33.341Z,12.77
2018-11-04T12:28:32.821Z,12.74
2018-11-04T12:29:33.343Z,12.76
2018-11-04T12:30:33.326Z,12.81
2018-11-04T12:31:33.057Z,12.74
2018-11-04T12:32:33.700Z,12.76
2018-11-04T12:33:33.414Z,12.81
2018-11-04T12:34:33.248Z,12.84
2018-11-04T12:35:33.107Z,12.89
2018-11-04T12:36:33.018Z,12.89
2018-11-04T12:37:33.015Z,12.83
2018-11-04T12:38:32.999Z,12.84
2018-11-04T12:39:33.248Z,12.84
2018-11-04T12:40:33.250Z,12.91
2018-11-04T12:41:33.249Z,12.88
2018-11-04T12:42:32.963Z,13.01
2018-11-04T12:43:32.952Z,12.95
2018-11-04T12:44:32.688Z,12.92
2018-11-04T12:45:33.060Z,12.92
2018-11-04T12:46:32.926Z,12.92
2018-11-04T12:47:33.184Z,13.06
2018-11-04T12:48:32.921Z,13.06
2018-11-04T12:49:32.648Z,13.14
2018-11-04T12:50:33.158Z,13.13
2018-11-04T12:51:32.888Z,13.1
2018-11-04T12:52:33.139Z,13.16
2018-11-04T12:53:32.615Z,13.14
2018-11-04T12:54:32.608Z,13.09
2018-11-04T12:55:32.855Z,13.09
2018-11-04T12:56:32.844Z,13.16
2018-11-04T12:57:32.584Z,13.13
2018-11-04T12:58:33.087Z,13.11
2018-11-04T12:59:32.821Z,13.14
2018-11-04T13:00:33.075Z,13.11
2018-11-04T13:01:33.069Z,13.1
2018-11-04T13:02:33.053Z,12.95
2018-11-04T13:03:33.043Z,12.98
2018-11-04T13:04:33.039Z,12.98
2018-11-04T13:05:33.089Z,12.95
2018-11-04T13:06:32.766Z,12.94
2018-11-04T13:07:32.500Z,12.95
2018-11-04T13:08:33.008Z,12.89
2018-11-04T13:09:32.481Z,12.83
2018-11-04T13:10:32.988Z,12.83
2018-11-04T13:11:32.598Z,12.74